Holualoa, Hawaii
Current Conditions -  °F | °C
As of 12:53 AM on Thursday 23 Oct 2014 (Local Time) from PHKO Reporting Station
Broken Clouds Broken Clouds  
Wind Chill: 78°   Ceiling: 9000
Heat Index: 80°   Visibility: 10mi
Dew Point: 70°   Wind: 5mph
Humidity: 76%   Direction: 60°ENE
Pressure: 29.98"   Gusts: NA
Location:  19.61°N, 155.94°W
Report Text: PHKO 231053Z AUTO 06004KT 10SM SCT037 BKN090 26/21 A2998 RMK AO2 SLP153 T02560211 TSNO
Loading
Personal Weather Stations






























Interactive Weather Map
Tropical Storm Tracking
New forecast layout! Learn more

10-Day Weather Forecast

Advertisements
Track Severe Weather on mobile